Time;durP1;ratioP1;P1;durP2;ratioP2;P2;SDS_P1;SDS_P2;PMS_P1;PMS_P2;Temp;Humidity;BMP_temperature;BMP_pressure;BME280_temperature;BME280_humidity;BME280_pressure;Samples;Min_cycle;Max_cycle;Signal;HPM_P1;HPM_P2
2022/01/24 00:01:40;;;;;;;15.23;8.55;;;5.30;99.90;;;;;;5078585;28;20048;-94
2022/01/24 00:04:09;;;;;;;13.13;9.00;;;5.40;99.90;;;;;;5078871;28;20405;-93
2022/01/24 00:06:35;;;;;;;13.10;8.43;;;5.20;99.90;;;;;;5078819;28;20101;-94
2022/01/24 00:09:02;;;;;;;12.38;8.38;;;5.60;99.90;;;;;;5078643;28;20040;-94
2022/01/24 00:11:42;;;;;;;12.20;8.18;;;5.50;99.90;;;;;;5078689;28;20056;-93
2022/01/24 00:17:12;;;;;;;13.27;8.82;;;5.60;99.90;;;;;;5095412;28;20052;-94
2022/01/24 00:27:56;;;;;;;18.13;9.68;;;5.20;99.90;;;;;;5037224;28;20053;-95
2022/01/24 00:30:22;;;;;;;17.88;9.85;;;5.40;99.90;;;;;;5020504;28;20052;-93
2022/01/24 00:32:47;;;;;;;18.00;10.85;;;5.20;99.90;;;;;;5020858;28;20059;-95
2022/01/24 00:35:13;;;;;;;17.67;10.60;;;5.20;99.90;;;;;;5020430;28;20045;-94
2022/01/24 00:38:16;;;;;;;16.33;9.93;;;5.20;99.90;;;;;;5020781;28;20053;-94
2022/01/24 00:40:45;;;;;;;16.27;10.23;;;5.20;99.90;;;;;;5020447;28;20068;-93
2022/01/24 00:43:23;;;;;;;19.25;10.63;;;5.20;99.90;;;;;;5020619;28;20048;-96
2022/01/24 00:46:05;;;;;;;17.73;9.95;;;5.20;99.90;;;;;;5020311;28;20049;-94
2022/01/24 00:54:01;;;;;;;18.42;10.85;;;5.30;99.90;;;;;;5036671;28;20049;-94
2022/01/24 00:56:27;;;;;;;17.90;11.20;;;5.20;99.90;;;;;;5019899;28;20163;-94
2022/01/24 00:58:52;;;;;;;22.23;11.77;;;5.40;99.90;;;;;;5020001;28;20061;-94
2022/01/24 01:01:19;;;;;;;19.00;11.48;;;5.20;99.90;;;;;;5036355;28;20059;-93
2022/01/24 01:03:44;;;;;;;18.17;11.63;;;5.10;99.90;;;;;;5032612;28;20052;-93
2022/01/24 01:06:19;;;;;;;23.35;12.20;;;5.20;99.90;;;;;;5094199;28;20066;-93
2022/01/24 01:19:45;;;;;;;19.52;12.50;;;5.10;99.90;;;;;;5094466;28;20048;-93
2022/01/24 01:22:11;;;;;;;21.88;13.60;;;5.20;99.90;;;;;;5077204;28;20047;-93
2022/01/24 01:24:46;;;;;;;20.63;13.63;;;5.30;99.90;;;;;;5077390;28;20048;-96
2022/01/24 01:27:18;;;;;;;19.40;13.15;;;5.20;99.90;;;;;;5077037;28;20093;-94
2022/01/24 01:30:01;;;;;;;21.48;13.70;;;5.00;99.90;;;;;;5076530;28;20123;-94
2022/01/24 01:32:52;;;;;;;22.98;13.55;;;5.10;99.90;;;;;;5077543;28;20412;-95
2022/01/24 01:56:33;;;;;;;24.63;15.25;;;5.20;99.90;;;;;;5094136;28;20083;-93
2022/01/24 01:58:58;;;;;;;24.83;15.63;;;5.20;99.90;;;;;;5094405;28;20109;-94
2022/01/24 02:01:24;;;;;;;23.88;15.50;;;5.20;99.90;;;;;;5076843;28;20048;-94
2022/01/24 02:03:54;;;;;;;23.02;15.48;;;5.20;99.90;;;;;;5076837;28;20127;-94
2022/01/24 02:06:48;;;;;;;23.63;15.83;;;5.20;99.90;;;;;;5077147;28;20087;-94
2022/01/24 02:09:16;;;;;;;26.75;16.25;;;5.20;99.90;;;;;;5076559;28;20298;-94
2022/01/24 02:11:41;;;;;;;26.45;16.55;;;5.00;99.90;;;;;;5077110;28;20047;-93
2022/01/24 02:14:13;;;;;;;23.30;15.65;;;5.40;99.90;;;;;;5076998;28;20040;-94
2022/01/24 02:16:53;;;;;;;24.75;15.63;;;5.20;99.90;;;;;;5076903;28;20048;-94
2022/01/24 02:24:43;;;;;;;21.70;14.88;;;5.20;99.90;;;;;;5093412;28;20139;-94
2022/01/24 02:27:10;;;;;;;23.73;14.88;;;5.20;99.90;;;;;;5076242;28;20139;-94
2022/01/24 02:32:08;;;;;;;23.50;14.82;;;5.10;99.90;;;;;;5093503;28;20058;-94
2022/01/24 02:34:38;;;;;;;21.90;14.80;;;5.10;99.90;;;;;;5076502;28;20048;-95
2022/01/24 02:37:08;;;;;;;28.13;14.70;;;5.10;99.90;;;;;;5076489;28;20036;-96
2022/01/24 02:50:27;;;;;;;22.80;14.75;;;5.10;99.90;;;;;;5092740;28;20044;-94
2022/01/24 02:52:53;;;;;;;21.15;13.98;;;5.10;99.90;;;;;;5092651;28;20060;-93
2022/01/24 02:55:19;;;;;;;20.48;13.88;;;5.10;99.90;;;;;;5076161;28;20044;-94
2022/01/24 02:57:44;;;;;;;20.55;13.90;;;5.10;99.90;;;;;;5076002;28;20048;-94
2022/01/24 03:00:12;;;;;;;21.10;13.40;;;5.10;99.90;;;;;;5075983;28;20485;-94
2022/01/24 03:02:37;;;;;;;19.58;13.10;;;5.10;99.90;;;;;;5076409;28;20051;-94
2022/01/24 03:05:03;;;;;;;19.10;13.18;;;5.10;99.90;;;;;;5076281;28;20040;-95
2022/01/24 03:07:31;;;;;;;18.85;12.75;;;5.10;99.90;;;;;;5075923;28;20051;-94
2022/01/24 03:09:57;;;;;;;18.80;12.82;;;5.00;99.90;;;;;;5076048;28;20044;-94
2022/01/24 03:12:42;;;;;;;20.58;13.60;;;5.10;99.90;;;;;;5076133;28;20390;-95
2022/01/24 03:15:10;;;;;;;21.33;13.93;;;5.00;99.90;;;;;;5076111;28;20439;-94
2022/01/24 03:17:38;;;;;;;20.25;12.48;;;5.00;99.90;;;;;;5076143;28;20497;-94
2022/01/24 03:20:05;;;;;;;16.48;12.05;;;5.10;99.90;;;;;;5079314;28;20043;-94
2022/01/24 03:22:50;;;;;;;20.23;12.93;;;5.00;99.90;;;;;;5096758;28;20086;-94
2022/01/24 03:25:15;;;;;;;18.73;13.10;;;5.00;99.90;;;;;;5079873;28;20048;-94
2022/01/24 03:27:41;;;;;;;20.33;12.98;;;5.10;99.90;;;;;;5079726;28;20054;-94
2022/01/24 03:30:07;;;;;;;17.40;11.80;;;5.00;99.90;;;;;;5096656;28;20047;-94
2022/01/24 03:32:33;;;;;;;17.23;11.70;;;5.00;99.90;;;;;;5096664;28;20044;-93
2022/01/24 03:34:59;;;;;;;17.30;11.73;;;5.00;99.90;;;;;;5079640;28;20085;-94
2022/01/24 03:41:05;;;;;;;18.00;11.00;;;5.10;99.90;;;;;;5097025;28;20480;-94
2022/01/24 03:43:31;;;;;;;16.40;11.25;;;5.10;99.90;;;;;;5079547;28;20036;-94
2022/01/24 03:48:41;;;;;;;18.60;12.70;;;5.30;99.90;;;;;;5096140;28;20131;-93
2022/01/24 03:51:06;;;;;;;16.75;11.73;;;5.10;99.90;;;;;;5079345;28;20040;-94
2022/01/24 03:53:33;;;;;;;17.92;12.43;;;5.10;99.90;;;;;;5078502;28;20052;-93
2022/01/24 03:55:59;;;;;;;19.52;11.55;;;5.10;99.90;;;;;;5079184;28;20059;-94
2022/01/24 03:58:24;;;;;;;22.35;12.48;;;5.20;99.90;;;;;;5079100;28;20036;-93
2022/01/24 04:00:50;;;;;;;17.00;11.30;;;5.30;99.90;;;;;;5096194;28;20485;-94
2022/01/24 04:03:16;;;;;;;18.00;12.13;;;5.10;99.90;;;;;;5078899;28;20142;-94
2022/01/24 04:05:42;;;;;;;18.00;12.07;;;5.10;99.90;;;;;;5078913;28;20052;-93
2022/01/24 04:08:08;;;;;;;20.20;13.13;;;5.10;99.90;;;;;;5078590;28;20040;-94
2022/01/24 04:10:41;;;;;;;20.95;13.88;;;5.10;99.90;;;;;;5095970;28;20062;-94
2022/01/24 04:13:21;;;;;;;24.65;15.95;;;5.10;99.90;;;;;;5078608;28;20047;-94
2022/01/24 04:19:00;;;;;;;21.73;14.70;;;5.00;99.90;;;;;;5095632;28;20485;-94
2022/01/24 04:21:29;;;;;;;23.30;14.50;;;5.00;99.90;;;;;;5078660;28;20058;-94
2022/01/24 04:27:36;;;;;;;22.63;14.63;;;5.00;99.90;;;;;;5096292;28;20090;-94
2022/01/24 04:30:01;;;;;;;23.40;14.70;;;5.00;99.90;;;;;;5094831;28;20044;-94
2022/01/24 04:32:27;;;;;;;24.30;15.07;;;5.00;99.90;;;;;;5078379;28;20048;-93
2022/01/24 04:34:53;;;;;;;29.85;18.73;;;5.00;99.90;;;;;;5078396;28;20051;-93
2022/01/24 04:37:56;;;;;;;26.55;16.35;;;4.90;99.90;;;;;;5078026;28;20101;-93
2022/01/24 04:40:25;;;;;;;28.67;16.60;;;5.00;99.90;;;;;;5078615;28;20093;-94
2022/01/24 04:43:00;;;;;;;25.20;16.50;;;4.90;99.90;;;;;;5078344;28;20534;-93
2022/01/24 04:45:57;;;;;;;29.13;17.23;;;5.10;99.90;;;;;;5077925;28;20130;-94
2022/01/24 04:51:14;;;;;;;27.80;17.15;;;5.10;99.90;;;;;;5095412;28;20393;-94
2022/01/24 04:56:05;;;;;;;26.70;17.10;;;5.00;99.90;;;;;;5094658;28;20048;-94
2022/01/24 04:58:31;;;;;;;32.78;18.88;;;4.90;99.90;;;;;;5077718;28;20050;-95
2022/01/24 05:00:57;;;;;;;32.30;19.08;;;4.90;99.90;;;;;;5078126;28;20093;-93
2022/01/24 05:03:22;;;;;;;34.20;19.73;;;4.90;99.90;;;;;;5078075;28;20048;-94
2022/01/24 05:05:49;;;;;;;29.75;17.60;;;4.90;99.90;;;;;;5094784;28;20052;-93
2022/01/24 05:08:16;;;;;;;32.10;20.20;;;4.90;99.90;;;;;;5077999;28;20135;-94
2022/01/24 05:10:57;;;;;;;36.03;20.10;;;4.90;99.90;;;;;;5077962;28;20040;-93
2022/01/24 05:23:25;;;;;;;35.78;21.55;;;4.90;99.90;;;;;;5094826;28;20196;-94
2022/01/24 05:25:22;;;;;;;34.40;20.33;;;5.10;99.90;;;;;;5095176;28;20038;-94
2022/01/24 05:27:48;;;;;;;35.13;19.67;;;4.90;99.90;;;;;;5077572;28;20061;-95
2022/01/24 05:30:15;;;;;;;31.55;19.50;;;4.90;99.90;;;;;;5094303;28;20043;-94
2022/01/24 05:32:41;;;;;;;35.15;20.17;;;4.90;99.90;;;;;;5077673;28;20051;-93
2022/01/24 05:35:07;;;;;;;40.25;22.17;;;5.20;99.90;;;;;;5077243;28;20105;-94
2022/01/24 05:41:13;;;;;;;41.08;23.42;;;4.90;99.90;;;;;;5094920;28;20484;-94
2022/01/24 05:43:39;;;;;;;45.92;24.95;;;4.90;99.90;;;;;;5076773;28;20040;-93
2022/01/24 05:46:04;;;;;;;48.15;27.17;;;4.90;99.90;;;;;;5076586;28;20056;-93
2022/01/24 05:48:30;;;;;;;50.30;28.65;;;4.80;99.90;;;;;;5077008;28;20079;-94
2022/01/24 05:50:56;;;;;;;48.35;26.92;;;4.90;99.90;;;;;;5076962;28;20044;-95
2022/01/24 05:54:42;;;;;;;48.55;26.92;;;4.90;99.90;;;;;;5076571;28;20540;-95
2022/01/24 05:57:09;;;;;;;45.80;25.50;;;4.90;99.90;;;;;;5072004;28;20101;-94
2022/01/24 05:59:36;;;;;;;45.30;26.20;;;5.20;99.90;;;;;;5077144;28;20105;-94
2022/01/24 06:02:03;;;;;;;49.13;27.08;;;4.90;99.90;;;;;;5077123;28;20043;-94
2022/01/24 06:04:29;;;;;;;47.95;27.83;;;4.90;99.90;;;;;;5076389;28;20550;-93
2022/01/24 06:06:54;;;;;;;51.75;27.48;;;4.90;99.90;;;;;;5093419;28;20036;-93
2022/01/24 06:09:20;;;;;;;52.15;27.83;;;4.90;99.90;;;;;;5079421;28;20468;-94
2022/01/24 06:11:46;;;;;;;53.25;28.65;;;4.90;99.90;;;;;;5080457;28;20097;-94
2022/01/24 06:14:11;;;;;;;59.10;30.85;;;5.00;99.90;;;;;;5080319;28;20039;-94
2022/01/24 06:16:38;;;;;;;62.97;32.63;;;4.90;99.90;;;;;;5080317;28;20082;-94
2022/01/24 06:19:04;;;;;;;62.97;33.33;;;5.00;99.90;;;;;;5080281;28;20040;-93
2022/01/24 06:21:30;;;;;;;64.05;33.42;;;5.00;99.90;;;;;;5079732;28;20135;-95
2022/01/24 06:23:56;;;;;;;68.10;35.55;;;4.90;99.90;;;;;;5080149;28;20048;-95
2022/01/24 06:26:21;;;;;;;76.10;38.10;;;4.90;99.90;;;;;;5079870;28;20622;-94
2022/01/24 06:28:47;;;;;;;74.75;39.22;;;4.90;99.90;;;;;;5079972;28;20048;-93
2022/01/24 06:31:13;;;;;;;67.80;36.95;;;4.90;99.90;;;;;;5079696;28;20124;-94
2022/01/24 06:33:39;;;;;;;73.97;38.75;;;4.90;99.90;;;;;;5080139;28;20132;-94
2022/01/24 06:36:05;;;;;;;72.32;38.97;;;4.90;99.90;;;;;;5096943;28;20047;-94
2022/01/24 06:38:50;;;;;;;68.15;37.22;;;5.00;99.90;;;;;;5080000;28;20075;-94
2022/01/24 06:41:21;;;;;;;77.68;38.42;;;5.10;99.90;;;;;;5079945;28;20040;-93
2022/01/24 06:43:47;;;;;;;78.47;40.70;;;4.90;99.90;;;;;;5079723;28;20044;-94
2022/01/24 06:46:13;;;;;;;73.88;39.40;;;5.00;99.90;;;;;;5079946;28;20040;-94
2022/01/24 06:48:39;;;;;;;75.78;40.85;;;5.00;99.90;;;;;;5079935;28;20055;-94
2022/01/24 06:51:10;;;;;;;77.22;41.78;;;5.00;99.90;;;;;;5080151;28;20048;-94
2022/01/24 06:53:40;;;;;;;80.55;41.38;;;5.00;99.90;;;;;;5080468;28;20055;-94
2022/01/24 06:56:06;;;;;;;77.72;39.13;;;4.90;99.90;;;;;;5083746;28;20051;-94
2022/01/24 06:58:33;;;;;;;79.85;41.70;;;4.90;99.90;;;;;;5100752;28;20079;-94
2022/01/24 07:00:59;;;;;;;77.22;40.78;;;4.90;99.90;;;;;;5083869;28;20092;-93
2022/01/24 07:03:25;;;;;;;82.18;42.40;;;5.00;99.90;;;;;;5083640;28;20051;-93
2022/01/24 07:05:50;;;;;;;76.30;40.53;;;5.00;99.90;;;;;;5083524;28;20089;-94
2022/01/24 07:08:16;;;;;;;78.93;41.47;;;4.90;99.90;;;;;;5100673;28;20042;-94
2022/01/24 07:10:42;;;;;;;82.13;41.00;;;5.10;99.90;;;;;;5083738;28;20043;-93
2022/01/24 07:13:11;;;;;;;81.28;41.05;;;5.00;99.90;;;;;;5083331;28;20051;-94
2022/01/24 07:15:46;;;;;;;81.20;41.25;;;4.90;99.90;;;;;;5083655;28;20088;-94
2022/01/24 07:21:07;;;;;;;74.30;40.35;;;5.10;99.90;;;;;;5078470;28;20597;-94
2022/01/24 07:23:33;;;;;;;74.00;39.55;;;4.90;99.90;;;;;;5061748;28;20592;-95
2022/01/24 07:25:59;;;;;;;80.93;42.53;;;5.10;99.90;;;;;;5061869;28;20090;-94
2022/01/24 07:28:25;;;;;;;83.03;41.50;;;5.20;99.90;;;;;;5062080;28;20048;-94
2022/01/24 07:30:51;;;;;;;80.60;42.80;;;5.00;99.90;;;;;;5061717;28;20048;-95
2022/01/24 07:33:17;;;;;;;80.05;42.15;;;5.10;99.90;;;;;;5061692;28;20044;-94
2022/01/24 07:35:44;;;;;;;87.95;42.97;;;5.00;99.90;;;;;;5061979;28;20081;-94
2022/01/24 07:38:10;;;;;;;82.15;41.65;;;5.10;99.90;;;;;;5062129;28;20412;-95
2022/01/24 07:40:42;;;;;;;83.35;42.03;;;5.00;99.90;;;;;;5061945;28;20131;-94
2022/01/24 07:45:35;;;;;;;86.20;43.38;;;5.00;99.90;;;;;;5079621;28;20047;-93
2022/01/24 07:48:01;;;;;;;86.03;43.38;;;4.90;99.90;;;;;;5061760;28;20131;-94
2022/01/24 07:50:27;;;;;;;81.75;44.00;;;5.00;99.90;;;;;;5061357;28;20139;-93
2022/01/24 07:53:13;;;;;;;78.35;43.10;;;4.80;99.90;;;;;;5061471;28;20428;-94
2022/01/24 07:55:39;;;;;;;86.25;43.40;;;5.00;99.90;;;;;;5061471;28;20056;-94
2022/01/24 07:58:06;;;;;;;84.82;44.00;;;4.90;99.90;;;;;;5077357;28;20139;-94
2022/01/24 08:00:34;;;;;;;84.78;44.00;;;5.00;99.90;;;;;;5082639;28;20043;-94
2022/01/24 08:02:59;;;;;;;87.78;43.20;;;5.20;99.90;;;;;;5082308;28;20477;-94
2022/01/24 08:05:26;;;;;;;84.90;44.50;;;5.10;99.90;;;;;;5081601;28;20089;-94
2022/01/24 08:11:36;;;;;;;80.95;42.92;;;5.00;99.90;;;;;;5116982;28;20104;-94
2022/01/24 08:14:02;;;;;;;80.82;43.67;;;5.00;99.90;;;;;;5081803;28;20055;-95
2022/01/24 08:16:29;;;;;;;81.50;42.92;;;5.00;99.90;;;;;;5082345;28;20085;-95
2022/01/24 08:18:57;;;;;;;81.57;44.45;;;5.00;99.90;;;;;;5082236;28;20073;-94
2022/01/24 08:21:23;;;;;;;84.82;43.70;;;5.10;99.90;;;;;;5082480;28;20046;-94
2022/01/24 08:23:50;;;;;;;80.50;42.22;;;5.20;99.90;;;;;;5082380;28;20476;-94
2022/01/24 08:26:17;;;;;;;78.05;41.22;;;5.10;99.90;;;;;;5082244;28;20043;-95
2022/01/24 08:28:43;;;;;;;78.25;41.15;;;5.00;99.90;;;;;;5082236;28;20036;-94
2022/01/24 08:31:09;;;;;;;79.38;41.65;;;5.10;99.90;;;;;;5062744;28;20078;-94
2022/01/24 08:33:35;;;;;;;80.05;42.92;;;5.10;99.90;;;;;;5056221;28;20496;-95
2022/01/24 08:36:01;;;;;;;81.75;40.78;;;5.10;99.90;;;;;;5062100;28;20070;-95
2022/01/24 08:38:33;;;;;;;75.93;40.70;;;5.00;99.90;;;;;;5078576;28;20036;-96
2022/01/24 08:41:05;;;;;;;75.00;40.50;;;5.20;99.90;;;;;;5061589;28;20083;-95
2022/01/24 08:43:51;;;;;;;76.50;39.95;;;4.90;99.90;;;;;;5078561;28;20130;-94
2022/01/24 08:46:18;;;;;;;71.20;39.20;;;5.20;99.90;;;;;;5061784;28;20040;-95
2022/01/24 08:48:46;;;;;;;77.05;40.63;;;5.50;99.90;;;;;;5078229;28;20044;-95
2022/01/24 08:51:11;;;;;;;74.90;39.47;;;5.50;99.90;;;;;;5061626;28;20040;-94
2022/01/24 08:53:37;;;;;;;76.93;41.80;;;5.50;99.90;;;;;;5076496;28;20501;-94
2022/01/24 08:56:05;;;;;;;72.55;38.60;;;5.10;99.90;;;;;;5060111;28;20417;-93
2022/01/24 08:58:33;;;;;;;71.15;39.08;;;5.20;99.90;;;;;;5077481;28;20055;-93
2022/01/24 09:00:59;;;;;;;73.13;40.03;;;5.20;99.90;;;;;;5075928;28;20044;-93
2022/01/24 09:03:29;;;;;;;77.75;40.75;;;5.50;99.90;;;;;;5060267;28;20040;-93
2022/01/24 09:05:59;;;;;;;72.20;39.05;;;5.50;99.90;;;;;;5073986;28;20105;-93
2022/01/24 09:08:25;;;;;;;73.25;39.00;;;5.20;99.90;;;;;;5066880;28;20059;-93
2022/01/24 09:10:52;;;;;;;72.93;39.42;;;5.30;99.90;;;;;;5070983;28;20078;-94
2022/01/24 09:13:21;;;;;;;77.72;41.28;;;5.20;99.90;;;;;;5075954;28;20087;-94
2022/01/24 09:15:47;;;;;;;71.10;39.67;;;5.20;99.90;;;;;;5076338;28;20040;-95
2022/01/24 09:18:13;;;;;;;71.80;38.38;;;5.50;99.90;;;;;;5073373;28;20393;-94
2022/01/24 09:20:39;;;;;;;71.93;39.03;;;5.30;99.90;;;;;;5076136;28;20059;-94
2022/01/24 09:23:06;;;;;;;70.93;38.58;;;5.40;99.90;;;;;;5075940;28;20048;-95
2022/01/24 09:25:33;;;;;;;74.88;39.78;;;5.30;99.90;;;;;;5077462;28;20059;-94
2022/01/24 09:27:58;;;;;;;71.90;38.92;;;5.40;99.90;;;;;;5076080;28;20083;-95
2022/01/24 09:30:25;;;;;;;63.58;34.90;;;5.30;99.90;;;;;;5076677;28;20086;-94
2022/01/24 09:32:58;;;;;;;62.92;35.22;;;5.30;99.90;;;;;;5060047;28;20040;-94
2022/01/24 09:35:27;;;;;;;63.85;36.08;;;5.40;99.90;;;;;;5076161;28;20059;-95
2022/01/24 09:37:53;;;;;;;67.82;37.13;;;5.40;99.90;;;;;;5060211;28;20393;-95
2022/01/24 09:40:19;;;;;;;62.33;35.63;;;5.30;99.90;;;;;;5080044;28;20051;-94
2022/01/24 09:42:46;;;;;;;60.92;35.47;;;5.60;99.90;;;;;;5069214;28;20040;-94
2022/01/24 09:45:13;;;;;;;55.38;32.75;;;5.30;99.90;;;;;;5101045;28;20043;-94
2022/01/24 09:47:39;;;;;;;58.92;33.42;;;5.30;99.90;;;;;;5059193;28;20447;-94
2022/01/24 09:50:08;;;;;;;58.60;33.40;;;5.30;99.90;;;;;;5064394;28;20036;-95
2022/01/24 09:52:36;;;;;;;53.15;31.52;;;5.30;99.90;;;;;;5084595;28;20060;-94
2022/01/24 09:55:03;;;;;;;52.95;31.67;;;5.40;99.90;;;;;;5087868;28;20535;-94
2022/01/24 09:57:29;;;;;;;57.13;32.17;;;5.40;99.90;;;;;;5066493;28;20044;-96
2022/01/24 09:59:58;;;;;;;57.90;33.47;;;5.30;99.90;;;;;;5084961;28;20127;-93
2022/01/24 10:02:25;;;;;;;51.33;30.42;;;5.30;99.90;;;;;;5084233;28;20087;-95
2022/01/24 10:04:51;;;;;;;58.15;32.00;;;5.60;99.90;;;;;;5087495;28;20048;-94
2022/01/24 10:07:17;;;;;;;54.05;32.50;;;5.40;99.90;;;;;;5087367;28;20522;-94
2022/01/24 10:09:49;;;;;;;53.45;30.90;;;5.40;99.90;;;;;;5089630;28;20035;-95
2022/01/24 10:18:01;;;;;;;51.22;29.52;;;5.40;99.90;;;;;;5076603;28;20047;-95
2022/01/24 10:20:31;;;;;;;49.92;28.63;;;5.80;99.90;;;;;;5060140;28;20087;-96
2022/01/24 10:23:13;;;;;;;50.40;29.83;;;5.60;99.90;;;;;;5059461;28;20080;-95
2022/01/24 10:25:55;;;;;;;45.58;28.48;;;5.40;99.90;;;;;;5059839;28;20043;-95
2022/01/24 10:28:24;;;;;;;49.90;29.38;;;5.50;99.90;;;;;;5060436;28;20054;-95
2022/01/24 10:31:16;;;;;;;48.70;28.58;;;5.50;99.90;;;;;;5064015;28;20044;-94
2022/01/24 10:33:51;;;;;;;48.63;28.83;;;5.50;99.90;;;;;;5064402;28;20388;-95
2022/01/24 10:36:35;;;;;;;46.25;27.52;;;5.50;99.90;;;;;;5064114;28;20047;-94
2022/01/24 10:39:43;;;;;;;41.78;26.75;;;5.50;99.90;;;;;;5064049;28;20048;-96
2022/01/24 10:45:15;;;;;;;37.67;25.33;;;5.80;99.90;;;;;;5080963;28;20043;-95
2022/01/24 10:47:48;;;;;;;36.17;24.85;;;5.50;99.90;;;;;;5064827;28;20112;-96
2022/01/24 10:50:30;;;;;;;40.20;26.20;;;5.40;99.90;;;;;;5081571;28;20067;-95
2022/01/24 10:52:56;;;;;;;;;;;5.60;99.90;;;;;;5081014;28;20056;-95
2022/01/24 10:55:24;;;;;;;38.80;25.10;;;5.50;99.90;;;;;;5081594;28;19920;-95
2022/01/24 10:57:55;;;;;;;37.33;25.48;;;5.60;99.90;;;;;;5063906;28;20113;-94
2022/01/24 11:00:27;;;;;;;38.35;26.20;;;5.60;99.90;;;;;;5063388;28;20541;-95
2022/01/24 11:02:55;;;;;;;34.63;24.80;;;5.60;99.90;;;;;;5063373;28;20193;-95
2022/01/24 11:05:24;;;;;;;38.97;25.42;;;5.60;99.90;;;;;;5062944;28;20048;-95
2022/01/24 11:07:51;;;;;;;35.05;24.23;;;5.60;99.90;;;;;;5065083;28;20044;-95
2022/01/24 11:10:17;;;;;;;33.00;23.20;;;5.70;99.90;;;;;;5066086;28;20580;-95
2022/01/24 11:12:43;;;;;;;30.80;22.38;;;5.70;99.90;;;;;;5066953;28;20040;-95
2022/01/24 11:15:12;;;;;;;33.60;22.40;;;5.60;99.90;;;;;;5064560;28;20097;-95
2022/01/24 11:17:40;;;;;;;36.67;23.85;;;5.60;99.90;;;;;;5063528;28;20048;-95
2022/01/24 11:20:08;;;;;;;35.92;24.48;;;5.60;99.90;;;;;;5063537;28;20131;-94
2022/01/24 11:22:42;;;;;;;36.10;24.33;;;5.60;99.90;;;;;;5064767;28;20134;-95
2022/01/24 11:28:51;;;;;;;33.50;24.23;;;5.60;99.90;;;;;;5097771;28;20508;-95
2022/01/24 11:31:20;;;;;;;36.55;25.77;;;5.60;99.90;;;;;;5063448;28;20053;-94
2022/01/24 11:34:00;;;;;;;32.35;23.83;;;5.60;99.90;;;;;;5063271;28;20101;-94
2022/01/24 11:36:37;;;;;;;33.03;23.42;;;5.60;99.90;;;;;;5079943;28;20127;-94
2022/01/24 11:39:03;;;;;;;34.20;23.75;;;5.60;99.90;;;;;;5063157;28;20040;-94
2022/01/24 11:41:34;;;;;;;33.90;24.48;;;5.70;99.90;;;;;;5062721;28;20523;-94
2022/01/24 11:44:10;;;;;;;30.33;23.90;;;5.60;99.90;;;;;;5063317;28;20464;-94
2022/01/24 11:46:56;;;;;;;31.20;24.17;;;5.40;99.90;;;;;;5063146;28;20039;-94
2022/01/24 11:49:29;;;;;;;29.88;23.85;;;5.80;99.90;;;;;;5062581;28;20080;-94
2022/01/24 11:52:06;;;;;;;34.25;25.15;;;5.50;99.90;;;;;;5063174;28;20044;-95
2022/01/24 11:55:00;;;;;;;32.13;25.17;;;5.60;99.90;;;;;;5063056;28;20048;-94
2022/01/24 11:57:26;;;;;;;34.15;24.38;;;5.80;99.90;;;;;;5063860;28;20044;-94
2022/01/24 12:00:12;;;;;;;30.60;23.48;;;5.60;99.90;;;;;;5063233;28;20050;-94
2022/01/24 12:03:04;;;;;;;33.65;22.88;;;5.60;99.90;;;;;;5079828;28;20139;-95
2022/01/24 12:05:48;;;;;;;33.33;24.05;;;5.60;99.90;;;;;;5021722;28;20402;-95
2022/01/24 12:11:55;;;;;;;29.33;21.75;;;5.50;99.90;;;;;;5055019;28;20047;-95
2022/01/24 12:14:37;;;;;;;30.98;24.00;;;5.40;99.90;;;;;;5037892;28;20402;-94
2022/01/24 12:17:11;;;;;;;29.48;22.63;;;5.50;99.90;;;;;;5021222;28;20053;-94
2022/01/24 12:19:37;;;;;;;27.52;21.23;;;5.40;99.90;;;;;;5021384;28;20049;-94
2022/01/24 12:22:37;;;;;;;22.27;17.23;;;5.40;99.90;;;;;;5023537;28;20069;-95
2022/01/24 12:25:40;;;;;;;24.70;18.33;;;5.30;99.90;;;;;;5021354;28;20132;-95
2022/01/24 12:28:16;;;;;;;25.77;18.95;;;5.30;99.90;;;;;;5038377;28;20899;-95
2022/01/24 12:31:02;;;;;;;23.08;16.00;;;5.40;99.90;;;;;;5021097;28;20145;-95
2022/01/24 12:33:29;;;;;;;22.90;17.38;;;5.40;99.90;;;;;;5037730;28;20044;-95
2022/01/24 12:35:55;;;;;;;24.17;18.70;;;5.60;99.90;;;;;;5038050;28;20087;-95
2022/01/24 12:38:38;;;;;;;23.88;19.17;;;5.60;99.90;;;;;;5021982;28;20045;-95
2022/01/24 12:41:33;;;;;;;22.42;17.10;;;5.40;99.90;;;;;;5020378;28;20601;-94
2022/01/24 12:46:28;;;;;;;19.92;16.98;;;5.80;99.90;;;;;;5088694;28;20082;-95
2022/01/24 12:48:56;;;;;;;21.63;17.42;;;5.50;99.90;;;;;;5081797;28;20096;-94
2022/01/24 12:51:27;;;;;;;26.27;17.75;;;5.50;99.90;;;;;;5083606;28;20055;-94
2022/01/24 12:53:54;;;;;;;23.90;18.17;;;5.70;99.90;;;;;;5081598;28;20184;-94
2022/01/24 12:56:33;;;;;;;20.42;16.27;;;5.50;99.90;;;;;;5081411;28;20052;-95
2022/01/24 12:59:00;;;;;;;23.63;16.70;;;5.40;99.90;;;;;;5081684;28;20135;-94
2022/01/24 13:01:27;;;;;;;22.75;17.92;;;5.40;99.90;;;;;;5081171;28;20043;-94
2022/01/24 13:04:08;;;;;;;21.38;16.70;;;5.40;99.90;;;;;;5081343;28;20126;-94
2022/01/24 13:06:36;;;;;;;20.40;16.48;;;5.40;99.90;;;;;;5078080;28;20113;-95
2022/01/24 13:09:11;;;;;;;23.23;17.30;;;5.40;99.90;;;;;;5094244;28;20488;-94
2022/01/24 13:11:52;;;;;;;20.33;16.48;;;5.70;99.90;;;;;;5098413;28;20123;-94
2022/01/24 13:14:30;;;;;;;;;;;5.50;99.90;;;;;;5081585;28;20103;-94
2022/01/24 13:22:42;;;;;;;22.35;18.00;;;5.30;99.90;;;;;;5098315;28;20051;-94
2022/01/24 13:26:04;;;;;;;23.77;17.83;;;5.60;99.90;;;;;;5080825;28;20044;-95
2022/01/24 13:28:30;;;;;;;;;;;5.30;99.90;;;;;;5081480;28;20051;-94
2022/01/24 13:31:02;;;;;;;25.75;20.55;;;5.00;99.90;;;;;;5080538;28;20022;-95
2022/01/24 13:33:30;;;;;;;27.27;19.85;;;5.40;99.90;;;;;;5081299;28;20149;-94
2022/01/24 13:36:16;;;;;;;26.13;20.25;;;5.30;99.90;;;;;;5080722;28;20054;-94
2022/01/24 13:39:40;;;;;;;27.55;19.80;;;5.60;99.90;;;;;;5077279;28;20477;-95
2022/01/24 13:42:06;;;;;;;26.70;20.63;;;5.30;99.90;;;;;;5078103;28;20051;-94
2022/01/24 13:44:32;;;;;;;24.70;20.08;;;5.30;99.90;;;;;;5080790;28;20055;-95
2022/01/24 13:47:09;;;;;;;27.00;21.77;;;5.40;99.90;;;;;;5085460;28;20050;-96
2022/01/24 13:49:34;;;;;;;32.42;23.05;;;5.20;99.90;;;;;;5084087;28;20036;-95
2022/01/24 13:52:03;;;;;;;30.52;23.52;;;5.10;99.90;;;;;;5080047;28;20043;-94
2022/01/24 13:58:37;;;;;;;35.00;24.17;;;5.20;99.90;;;;;;5116283;28;20081;-94
2022/01/24 14:01:03;;;;;;;32.17;23.15;;;5.20;99.90;;;;;;5081068;28;20424;-94
2022/01/24 14:03:29;;;;;;;33.97;23.90;;;5.20;99.90;;;;;;5081172;28;20484;-93
2022/01/24 14:06:17;;;;;;;30.83;23.35;;;5.20;99.90;;;;;;5080906;28;20047;-94
2022/01/24 14:12:57;;;;;;;35.20;25.23;;;5.10;99.90;;;;;;5116138;28;20114;-94
2022/01/24 14:15:54;;;;;;;34.92;23.98;;;5.10;99.90;;;;;;5097801;28;20052;-94
2022/01/24 14:18:31;;;;;;;30.95;21.88;;;4.80;99.90;;;;;;5080740;28;20052;-94
2022/01/24 14:21:13;;;;;;;34.22;22.50;;;5.10;99.90;;;;;;5080417;28;20074;-95
2022/01/24 14:27:55;;;;;;;34.13;24.30;;;5.00;99.90;;;;;;5115013;28;20030;-95
2022/01/24 14:30:44;;;;;;;38.25;26.02;;;5.00;99.90;;;;;;5080521;28;20036;-94
2022/01/24 14:33:29;;;;;;;41.40;27.20;;;4.90;99.90;;;;;;5081401;28;20126;-95
2022/01/24 14:36:09;;;;;;;38.65;25.77;;;4.70;99.90;;;;;;5080513;28;20054;-94
2022/01/24 14:38:43;;;;;;;34.90;23.60;;;4.90;99.90;;;;;;5077164;28;20051;-94
2022/01/24 14:41:15;;;;;;;36.53;25.55;;;4.90;99.90;;;;;;5078117;28;20044;-94
2022/01/24 14:46:36;;;;;;;34.95;25.27;;;4.80;99.90;;;;;;5076583;28;20486;-94
2022/01/24 14:49:11;;;;;;;38.85;27.17;;;5.00;99.90;;;;;;5093185;28;20040;-93
2022/01/24 14:51:47;;;;;;;35.33;24.88;;;4.90;99.90;;;;;;5059602;28;20611;-92
2022/01/24 14:54:26;;;;;;;34.17;24.92;;;4.80;99.90;;;;;;5048085;28;20144;-94
2022/01/24 14:56:55;;;;;;;37.00;24.77;;;4.80;99.90;;;;;;5040601;28;20044;-94
2022/01/24 14:59:33;;;;;;;39.13;27.02;;;4.80;99.90;;;;;;5056960;28;20049;-92
2022/01/24 15:02:00;;;;;;;34.50;24.33;;;4.70;99.90;;;;;;5056891;28;20048;-94
2022/01/24 15:04:26;;;;;;;32.28;22.95;;;4.80;99.90;;;;;;5040302;28;20056;-94
2022/01/24 15:06:53;;;;;;;30.08;21.30;;;4.80;99.90;;;;;;5040187;28;20044;-93
2022/01/24 15:13:04;;;;;;;30.10;20.37;;;4.80;99.90;;;;;;5074100;28;20108;-94
2022/01/24 15:15:33;;;;;;;36.30;23.75;;;5.00;99.90;;;;;;5058874;28;20135;-94
2022/01/24 15:30:20;;;;;;;29.88;21.60;;;4.60;99.90;;;;;;5035451;28;20092;-94
2022/01/24 15:32:46;;;;;;;31.25;23.08;;;4.80;99.90;;;;;;5002455;28;20058;-94
2022/01/24 15:35:15;;;;;;;35.63;23.42;;;4.60;99.90;;;;;;5002598;28;20061;-93
2022/01/24 15:37:41;;;;;;;33.92;24.63;;;4.60;99.90;;;;;;5002577;28;20148;-94
2022/01/24 15:44:01;;;;;;;36.92;25.75;;;4.60;99.90;;;;;;5035324;28;20116;-94
2022/01/24 15:46:50;;;;;;;46.67;34.35;;;4.60;99.90;;;;;;5003320;28;20046;-94